Aérodrome :
LOGIN :

S'inscrire | Disclaimer

   EN    FR    IT 

 










Légende :    VFR   VFR Marginal   IFR   IFR Intensif   IFR Très Intensif
Visi : 
Plafond : 
>= 8 km
>= 3000ft
5 à 8 km
1000 à 3000 ft
1500m à 5 km
500 à 1000 ft
800 à 1500m
200 à 500 ft
< 800m
< 200 ft
Symboles :   Orages  Brouillard  Fortes neiges  Fortes précipitations  Vent > 20 kt
SIGMETs :   Divers  Orages  Givrage  Turbulence  Onde Orograph.  Cendres Volcan.







- Altitude de l'aérodrome : 0 ft


ETEB - Ansbach Army Heliport

DERNIER METAR :
  • 270756Z AUTO 11007KT 9999 FEW190 12/01 A2998 RMK AO2 SLP168 T01150014 $

METARs EXPIRÉS :
  • 270656Z AUTO 10004KT 9999 CLR 10/02 A2999 RMK AO2 SLP174 T00960022 $
  • 270556Z AUTO 00000KT 9999 CLR 05/03 A3000 RMK AO2 SLP179 T00510028 10054 20029 57014 $

TAF TAF ETEB
Valide du 27 à 05h jusqu'au 28 à 11h UTC


270459Z 2705/2811 VRB06KT 9999 FEW040 QNH3000INS
BECMG 2709/2710 15009KT 9999 FEW040 QNH2996INS
BECMG 2805/2806 VRB06KT 9999 BKN070 QNH2991INS TX19/2715Z TN02/2803Z
Pas de NOTAMs connus pour ce terrain.



MET'MAP, la Météo Aéronautique d'un coup d'oeil ! - Copyright ORBIFLY Décembre 2007 - Disclaimer

ORBIFLY MET'MAP TEAM :

Programmation & Développement : Alexandra Zaïnal
Conception & Développement : Baudouin d'Aumeries
Co-Programmation & Développement : Marc-Olivier Méhu
Soutien technique & logistique : Manuel Goepfert

Contact : metmap@orbifly.com




SOURCES & CREDITS :

   NOAA